createdAt,value
2023-03-26T00:01:21.358Z,1.80
2023-03-26T00:03:53.964Z,2.58
2023-03-26T00:06:26.423Z,1.33
2023-03-26T00:08:57.442Z,1.58
2023-03-26T00:11:25.885Z,2.97
2023-03-26T00:13:56.893Z,1.00
2023-03-26T00:16:26.631Z,1.67
2023-03-26T00:18:53.551Z,1.25
2023-03-26T00:21:29.350Z,2.05
2023-03-26T00:24:11.803Z,2.17
2023-03-26T00:26:38.903Z,1.80
2023-03-26T00:29:06.909Z,1.60
2023-03-26T00:31:38.021Z,1.25
2023-03-26T00:34:05.847Z,2.85
2023-03-26T00:36:35.790Z,2.55
2023-03-26T00:39:05.539Z,1.27
2023-03-26T00:41:32.255Z,2.35
2023-03-26T00:44:00.468Z,2.13
2023-03-26T00:46:29.849Z,1.83
2023-03-26T00:49:00.146Z,2.63
2023-03-26T00:51:28.262Z,2.15
2023-03-26T00:53:58.499Z,1.98
2023-03-26T00:56:25.511Z,3.50
2023-03-26T00:58:52.065Z,2.75
2023-03-26T01:01:27.505Z,4.40
2023-03-26T01:04:08.210Z,2.70
2023-03-26T01:06:39.044Z,3.13
2023-03-26T01:09:19.583Z,2.20
2023-03-26T01:11:47.579Z,1.20
2023-03-26T01:14:21.312Z,1.35
2023-03-26T01:16:55.896Z,1.27
2023-03-26T01:19:51.978Z,1.98
2023-03-26T01:22:24.593Z,1.70
2023-03-26T01:24:56.306Z,3.60
2023-03-26T01:27:42.924Z,6.60
2023-03-26T01:30:51.950Z,2.28
2023-03-26T01:33:34.069Z,2.20
2023-03-26T01:36:26.033Z,1.58
2023-03-26T01:39:28.240Z,2.85
2023-03-26T01:42:02.378Z,3.15
2023-03-26T01:44:59.590Z,1.58
2023-03-26T01:47:26.956Z,2.55
2023-03-26T01:49:53.488Z,2.40
2023-03-26T01:52:25.332Z,2.45
2023-03-26T01:54:56.105Z,1.85
2023-03-26T01:57:47.500Z,1.75
2023-03-26T02:00:29.042Z,2.22
2023-03-26T02:03:08.848Z,3.00
2023-03-26T02:05:56.718Z,3.90
2023-03-26T02:08:35.586Z,1.90
2023-03-26T02:11:11.442Z,2.15
2023-03-26T02:13:44.741Z,4.75
2023-03-26T02:16:16.386Z,2.95
2023-03-26T02:18:45.078Z,2.67
2023-03-26T02:21:20.422Z,3.72
2023-03-26T02:23:57.669Z,3.15
2023-03-26T02:26:27.478Z,4.65
2023-03-26T02:28:53.974Z,1.60
2023-03-26T02:31:21.913Z,3.10
2023-03-26T02:33:52.144Z,2.15
2023-03-26T02:36:24.447Z,2.47
2023-03-26T02:38:51.810Z,2.33
2023-03-26T02:41:18.606Z,2.30
2023-03-26T02:43:45.323Z,4.18
2023-03-26T02:46:11.978Z,2.33
2023-03-26T02:48:38.745Z,3.22
2023-03-26T02:51:06.789Z,4.55
2023-03-26T02:53:33.664Z,4.93
2023-03-26T02:56:00.970Z,2.58
2023-03-26T02:58:30.167Z,2.42
2023-03-26T03:00:57.077Z,1.60
2023-03-26T03:03:27.395Z,2.92
2023-03-26T03:05:55.389Z,1.35
2023-03-26T03:08:24.276Z,3.50
2023-03-26T03:10:58.496Z,1.88
2023-03-26T03:13:25.413Z,1.60
2023-03-26T03:15:52.596Z,2.40
2023-03-26T03:18:19.326Z,1.95
2023-03-26T03:20:46.913Z,5.47
2023-03-26T03:23:14.816Z,1.58
2023-03-26T03:25:41.472Z,5.97
2023-03-26T03:28:08.523Z,2.88
2023-03-26T03:30:35.885Z,3.55
2023-03-26T03:33:03.165Z,3.38
2023-03-26T03:35:30.306Z,2.13
2023-03-26T03:37:58.356Z,3.50
2023-03-26T03:40:24.882Z,8.75
2023-03-26T03:42:51.680Z,4.68
2023-03-26T03:45:18.504Z,4.78
2023-03-26T03:47:45.155Z,2.70
2023-03-26T03:50:11.930Z,4.32
2023-03-26T03:52:38.450Z,2.50
2023-03-26T03:55:05.448Z,2.20
2023-03-26T03:57:34.744Z,4.18
2023-03-26T04:00:05.114Z,3.20
2023-03-26T04:02:35.060Z,1.83
2023-03-26T04:05:02.854Z,4.75
2023-03-26T04:07:32.170Z,5.68
2023-03-26T04:10:00.247Z,2.35
2023-03-26T04:12:28.509Z,2.53
2023-03-26T04:14:56.173Z,2.28
2023-03-26T04:17:23.526Z,2.40
2023-03-26T04:19:52.946Z,5.22
2023-03-26T04:22:19.876Z,2.40
2023-03-26T04:24:48.853Z,3.33
2023-03-26T04:27:20.264Z,4.70
2023-03-26T04:29:49.830Z,3.63
2023-03-26T04:32:26.611Z,3.17
2023-03-26T04:34:53.797Z,3.72
2023-03-26T04:37:27.540Z,5.90
2023-03-26T04:39:55.146Z,3.88
2023-03-26T04:42:21.768Z,1.73
2023-03-26T04:44:52.327Z,3.55
2023-03-26T04:47:19.305Z,3.25
2023-03-26T04:49:47.549Z,4.60
2023-03-26T04:52:15.040Z,2.22
2023-03-26T04:54:44.270Z,4.75
2023-03-26T04:57:21.441Z,2.20
2023-03-26T04:59:48.013Z,3.10
2023-03-26T05:02:15.578Z,2.38
2023-03-26T05:04:43.940Z,2.38
2023-03-26T05:07:12.945Z,4.90
2023-03-26T05:09:39.539Z,4.20
2023-03-26T05:12:06.201Z,6.38
2023-03-26T05:14:32.699Z,1.75
2023-03-26T05:17:06.063Z,3.88
2023-03-26T05:19:32.936Z,3.50
2023-03-26T05:21:59.594Z,2.50
2023-03-26T05:24:27.220Z,2.40
2023-03-26T05:26:56.536Z,2.33
2023-03-26T05:29:24.222Z,4.57
2023-03-26T05:31:51.213Z,4.30
2023-03-26T05:34:17.879Z,3.90
2023-03-26T05:36:44.426Z,2.47
2023-03-26T05:39:12.957Z,5.20
2023-03-26T05:41:39.628Z,2.83
2023-03-26T05:44:06.211Z,5.80
2023-03-26T05:46:32.853Z,3.10
2023-03-26T05:48:59.380Z,4.22
2023-03-26T05:51:26.026Z,2.55
2023-03-26T05:53:52.771Z,3.20
2023-03-26T05:56:19.370Z,6.70
2023-03-26T05:58:47.558Z,5.53
2023-03-26T06:01:18.598Z,5.50
2023-03-26T06:03:46.009Z,2.90
2023-03-26T06:06:16.268Z,7.80
2023-03-26T06:08:48.881Z,3.63
2023-03-26T06:11:29.766Z,4.90
2023-03-26T06:13:56.467Z,6.22
2023-03-26T06:16:27.311Z,7.28
2023-03-26T06:18:56.333Z,5.55
2023-03-26T06:21:25.129Z,4.82
2023-03-26T06:23:51.956Z,3.72
2023-03-26T06:26:23.443Z,2.25
2023-03-26T06:28:50.008Z,4.20
2023-03-26T06:31:17.426Z,4.10
2023-03-26T06:33:44.136Z,2.92
2023-03-26T06:36:10.899Z,6.15
2023-03-26T06:38:37.598Z,2.70
2023-03-26T06:41:06.295Z,6.70
2023-03-26T06:43:34.024Z,4.70
2023-03-26T06:46:04.147Z,5.78
2023-03-26T06:48:31.312Z,4.60
2023-03-26T06:50:58.160Z,3.97
2023-03-26T06:53:24.791Z,10.07
2023-03-26T06:55:53.851Z,3.63
2023-03-26T06:58:20.995Z,7.72
2023-03-26T07:00:47.649Z,2.88
2023-03-26T07:03:14.279Z,4.00
2023-03-26T07:05:41.245Z,2.92
2023-03-26T07:08:07.904Z,2.45
2023-03-26T07:10:34.534Z,4.38
2023-03-26T07:13:01.105Z,3.97
2023-03-26T07:15:28.711Z,4.25
2023-03-26T07:17:55.641Z,5.38
2023-03-26T07:20:22.316Z,4.50
2023-03-26T07:22:49.827Z,5.75
2023-03-26T07:25:17.848Z,10.30
2023-03-26T07:27:56.211Z,13.88
2023-03-26T07:30:42.194Z,8.40
2023-03-26T07:33:18.148Z,3.38
2023-03-26T07:35:57.089Z,5.45
2023-03-26T07:38:51.504Z,6.03
2023-03-26T07:41:23.893Z,6.93
2023-03-26T07:44:24.437Z,5.15
2023-03-26T07:46:53.450Z,3.78
2023-03-26T07:49:20.667Z,5.63
2023-03-26T07:51:48.914Z,3.58
2023-03-26T07:54:15.899Z,6.15
2023-03-26T07:57:04.869Z,5.03
2023-03-26T07:59:52.516Z,4.50
2023-03-26T08:02:37.015Z,3.10
2023-03-26T08:05:18.978Z,4.88
2023-03-26T08:08:16.477Z,4.40
2023-03-26T08:11:00.166Z,5.95
2023-03-26T08:14:14.973Z,6.13
2023-03-26T08:17:15.086Z,4.18
2023-03-26T08:19:50.216Z,5.00
2023-03-26T08:22:36.766Z,6.50
2023-03-26T08:25:03.514Z,5.03
2023-03-26T08:27:38.231Z,4.93
2023-03-26T08:30:17.282Z,4.07
2023-03-26T08:32:56.346Z,2.95
2023-03-26T08:35:24.258Z,3.05
2023-03-26T08:37:51.868Z,3.97
2023-03-26T08:40:43.672Z,4.28
2023-03-26T08:43:48.973Z,4.40
2023-03-26T08:46:33.552Z,4.35
2023-03-26T08:49:14.020Z,3.42
2023-03-26T08:51:46.631Z,3.05
2023-03-26T08:54:37.350Z,3.63
2023-03-26T08:57:27.958Z,3.33
2023-03-26T08:59:54.507Z,5.85
2023-03-26T09:02:38.863Z,5.00
2023-03-26T09:05:20.784Z,5.63
2023-03-26T09:08:16.697Z,5.07
2023-03-26T09:10:52.316Z,8.52
2023-03-26T09:13:24.672Z,4.57
2023-03-26T09:16:15.660Z,3.47
2023-03-26T09:19:16.895Z,2.83
2023-03-26T09:22:07.315Z,6.72
2023-03-26T09:24:52.690Z,4.90
2023-03-26T09:27:35.888Z,4.65
2023-03-26T09:30:31.621Z,3.22
2023-03-26T09:33:05.581Z,5.97
2023-03-26T09:35:53.796Z,6.22
2023-03-26T09:38:39.031Z,4.25
2023-03-26T09:41:17.451Z,1.23
2023-03-26T09:43:59.086Z,2.47
2023-03-26T09:46:47.572Z,6.30
2023-03-26T09:49:49.546Z,2.35
2023-03-26T09:52:50.396Z,5.53
2023-03-26T09:55:38.633Z,4.20
2023-03-26T09:58:23.731Z,4.85
2023-03-26T10:01:06.747Z,2.65
2023-03-26T10:04:33.278Z,2.05
2023-03-26T10:09:38.130Z,5.40
2023-03-26T10:12:13.503Z,5.53
2023-03-26T10:14:54.891Z,2.40
2023-03-26T10:17:52.536Z,7.50
2023-03-26T10:20:25.182Z,2.78
2023-03-26T10:23:16.917Z,3.08
2023-03-26T10:25:51.063Z,3.25
2023-03-26T10:28:49.284Z,3.30
2023-03-26T10:31:37.144Z,2.67
2023-03-26T10:34:29.119Z,2.15
2023-03-26T10:37:36.679Z,6.28
2023-03-26T10:40:10.208Z,3.75
2023-03-26T10:43:09.005Z,4.07
2023-03-26T10:46:25.421Z,3.33
2023-03-26T10:49:28.355Z,4.28
2023-03-26T10:52:08.972Z,4.10
2023-03-26T10:54:35.573Z,2.63
2023-03-26T10:57:11.265Z,4.22
2023-03-26T10:59:37.911Z,8.88
2023-03-26T11:02:30.058Z,6.47
2023-03-26T11:05:24.890Z,5.40
2023-03-26T11:08:07.698Z,4.28
2023-03-26T11:10:48.563Z,3.47
2023-03-26T11:13:34.109Z,2.83
2023-03-26T11:16:09.775Z,4.22
2023-03-26T11:18:59.498Z,6.20
2023-03-26T11:21:47.857Z,2.10
2023-03-26T11:24:35.125Z,2.40
2023-03-26T11:27:14.484Z,4.25
2023-03-26T11:29:55.500Z,5.10
2023-03-26T11:32:34.411Z,3.08
2023-03-26T11:35:08.326Z,3.33
2023-03-26T11:37:41.596Z,5.13
2023-03-26T11:40:23.747Z,4.20
2023-03-26T11:42:56.008Z,3.78
2023-03-26T11:45:27.323Z,5.45
2023-03-26T11:48:08.201Z,3.47
2023-03-26T11:50:41.157Z,4.45
2023-03-26T11:53:17.780Z,4.95
2023-03-26T11:55:57.470Z,3.88
2023-03-26T11:58:32.351Z,2.20
2023-03-26T12:00:59.225Z,5.25
2023-03-26T12:03:30.323Z,3.42
2023-03-26T12:05:59.950Z,4.43
2023-03-26T12:08:39.843Z,3.35
2023-03-26T12:11:10.976Z,5.78
2023-03-26T12:13:44.206Z,11.75
2023-03-26T12:16:19.284Z,4.65
2023-03-26T12:18:57.509Z,12.07
2023-03-26T12:21:24.063Z,2.25
2023-03-26T12:23:54.005Z,1.50
2023-03-26T12:26:36.320Z,2.90
2023-03-26T12:29:14.270Z,2.20
2023-03-26T12:32:04.998Z,2.90
2023-03-26T12:34:35.511Z,3.40
2023-03-26T12:37:04.048Z,2.50
2023-03-26T12:40:10.588Z,2.30
2023-03-26T12:44:44.921Z,3.05
2023-03-26T12:45:24.314Z,7.28
2023-03-26T12:47:58.983Z,2.45
2023-03-26T12:50:42.814Z,2.58
2023-03-26T12:53:19.280Z,2.92
2023-03-26T12:55:57.561Z,2.17
2023-03-26T12:59:05.614Z,3.00
2023-03-26T13:01:47.297Z,4.50
2023-03-26T13:04:58.438Z,1.83
2023-03-26T13:07:56.739Z,4.05
2023-03-26T13:10:35.148Z,3.50
2023-03-26T13:13:57.934Z,4.65
2023-03-26T13:17:15.995Z,7.80
2023-03-26T13:19:49.538Z,2.13
2023-03-26T13:22:39.834Z,2.90
2023-03-26T13:25:31.832Z,5.43
2023-03-26T13:28:27.196Z,6.80
2023-03-26T13:33:45.893Z,6.20
2023-03-26T13:36:39.708Z,7.18
2023-03-26T13:39:41.424Z,6.03
2023-03-26T13:42:33.840Z,6.10
2023-03-26T13:45:23.189Z,5.90
2023-03-26T13:47:54.969Z,5.90
2023-03-26T13:50:31.084Z,2.90
2023-03-26T13:53:17.000Z,5.55
2023-03-26T13:55:50.809Z,5.93
2023-03-26T13:58:24.236Z,4.05
2023-03-26T14:01:09.527Z,8.68
2023-03-26T14:04:04.308Z,7.53
2023-03-26T14:06:42.457Z,6.70
2023-03-26T14:09:26.004Z,6.78
2023-03-26T14:11:56.709Z,5.90
2023-03-26T14:14:57.945Z,4.60
2023-03-26T14:17:31.041Z,5.80
2023-03-26T14:20:28.064Z,2.83
2023-03-26T14:23:16.403Z,5.28
2023-03-26T14:26:13.545Z,4.53
2023-03-26T14:29:07.175Z,6.00
2023-03-26T14:31:42.623Z,3.50
2023-03-26T14:34:45.351Z,3.40
2023-03-26T14:37:47.794Z,3.13
2023-03-26T14:40:31.447Z,4.55
2023-03-26T14:43:16.336Z,7.05
2023-03-26T14:45:55.860Z,2.83
2023-03-26T14:48:55.862Z,8.93
2023-03-26T14:51:54.468Z,7.38
2023-03-26T14:54:27.804Z,3.85
2023-03-26T14:57:27.661Z,2.60
2023-03-26T15:00:29.205Z,3.53
2023-03-26T15:03:08.091Z,5.05
2023-03-26T15:05:53.172Z,5.07
2023-03-26T15:11:20.987Z,4.05
2023-03-26T15:14:24.724Z,3.40
2023-03-26T15:17:03.858Z,2.80
2023-03-26T15:19:40.665Z,1.77
2023-03-26T15:22:48.239Z,1.38
2023-03-26T15:25:45.393Z,2.92
2023-03-26T15:28:24.198Z,3.15
2023-03-26T15:31:16.583Z,3.30
2023-03-26T15:33:59.010Z,3.38
2023-03-26T15:36:58.899Z,4.03
2023-03-26T15:40:12.817Z,2.80
2023-03-26T15:43:01.538Z,4.80
2023-03-26T15:45:28.186Z,4.47
2023-03-26T15:48:09.528Z,1.33
2023-03-26T15:50:56.260Z,2.33
2023-03-26T15:53:52.093Z,3.35
2023-03-26T15:56:43.086Z,2.10
2023-03-26T16:00:00.486Z,4.10
2023-03-26T16:02:53.883Z,1.95
2023-03-26T16:05:33.145Z,5.03
2023-03-26T16:08:31.443Z,1.88
2023-03-26T16:10:59.576Z,3.45
2023-03-26T16:13:26.082Z,2.15
2023-03-26T16:16:09.687Z,2.08
2023-03-26T16:18:42.143Z,4.90
2023-03-26T16:21:53.355Z,3.72
2023-03-26T16:24:24.403Z,5.30
2023-03-26T16:27:02.764Z,3.75
2023-03-26T16:29:30.530Z,3.90
2023-03-26T16:32:35.550Z,5.43
2023-03-26T16:35:21.831Z,4.25
2023-03-26T16:38:05.862Z,7.97
2023-03-26T16:40:34.366Z,5.82
2023-03-26T16:43:18.815Z,3.28
2023-03-26T16:46:17.940Z,1.73
2023-03-26T16:48:59.552Z,6.80
2023-03-26T16:51:50.874Z,3.53
2023-03-26T16:54:48.987Z,4.35
2023-03-26T16:57:27.153Z,3.75
2023-03-26T17:00:35.598Z,3.58
2023-03-26T17:03:18.141Z,3.70
2023-03-26T17:05:47.830Z,3.33
2023-03-26T17:08:58.411Z,2.08
2023-03-26T17:11:36.309Z,2.42
2023-03-26T17:14:24.594Z,5.97
2023-03-26T17:17:25.252Z,2.78
2023-03-26T17:20:04.072Z,2.25
2023-03-26T17:22:46.227Z,3.40
2023-03-26T17:25:24.426Z,3.95
2023-03-26T17:27:50.975Z,7.60
2023-03-26T17:30:34.699Z,3.70
2023-03-26T17:33:06.083Z,2.65
2023-03-26T17:35:45.593Z,2.45
2023-03-26T17:38:18.385Z,2.25
2023-03-26T17:40:56.849Z,2.05
2023-03-26T17:43:46.539Z,1.98
2023-03-26T17:46:29.489Z,3.80
2023-03-26T17:49:11.441Z,3.80
2023-03-26T17:51:47.483Z,2.65
2023-03-26T17:54:22.272Z,5.55
2023-03-26T17:59:25.802Z,4.57
2023-03-26T18:01:57.572Z,4.43
2023-03-26T18:04:31.983Z,3.72
2023-03-26T18:07:44.087Z,4.15
2023-03-26T18:10:13.501Z,4.65
2023-03-26T18:13:04.324Z,6.18
2023-03-26T18:15:52.594Z,5.72
2023-03-26T18:18:34.561Z,7.60
2023-03-26T18:21:04.570Z,6.70
2023-03-26T18:23:41.206Z,7.30
2023-03-26T18:26:15.993Z,9.23
2023-03-26T18:31:22.729Z,11.48
2023-03-26T18:33:50.836Z,11.48
2023-03-26T18:36:25.972Z,7.30
2023-03-26T18:38:57.953Z,6.82
2023-03-26T18:41:31.260Z,7.57
2023-03-26T18:44:03.429Z,6.00
2023-03-26T18:46:30.361Z,4.95
2023-03-26T18:48:58.811Z,4.47
2023-03-26T18:51:26.733Z,6.90
2023-03-26T18:53:59.336Z,6.05
2023-03-26T18:56:38.695Z,6.18
2023-03-26T18:59:21.646Z,6.43
2023-03-26T19:01:49.048Z,13.05
2023-03-26T19:04:16.453Z,9.45
2023-03-26T19:06:44.115Z,9.88
2023-03-26T19:09:24.257Z,11.00
2023-03-26T19:12:03.895Z,10.43
2023-03-26T19:14:35.345Z,9.68
2023-03-26T19:17:05.276Z,9.00
2023-03-26T19:19:37.353Z,12.60
2023-03-26T19:22:11.464Z,9.73
2023-03-26T19:24:40.417Z,8.95
2023-03-26T19:27:07.374Z,9.10
2023-03-26T19:29:36.232Z,12.38
2023-03-26T19:32:21.197Z,9.25
2023-03-26T19:34:48.570Z,11.93
2023-03-26T19:37:25.323Z,16.63
2023-03-26T19:40:14.325Z,13.20
2023-03-26T19:42:44.801Z,12.60
2023-03-26T19:45:19.297Z,11.52
2023-03-26T19:47:50.425Z,15.80
2023-03-26T19:50:27.159Z,9.73
2023-03-26T19:53:19.009Z,10.02
2023-03-26T19:56:04.473Z,10.48
2023-03-26T19:58:35.729Z,11.27
2023-03-26T20:01:06.512Z,9.52
2023-03-26T20:03:43.652Z,8.30
2023-03-26T20:06:16.133Z,7.45
2023-03-26T20:08:43.079Z,8.60
2023-03-26T20:11:16.592Z,6.90
2023-03-26T20:13:43.274Z,10.40
2023-03-26T20:16:27.209Z,9.40
2023-03-26T20:18:57.273Z,11.57
2023-03-26T20:21:27.073Z,11.00
2023-03-26T20:23:54.821Z,8.63
2023-03-26T20:26:23.572Z,10.82
2023-03-26T20:28:53.563Z,7.55
2023-03-26T20:31:23.351Z,6.25
2023-03-26T20:33:51.816Z,13.70
2023-03-26T20:36:34.147Z,10.20
2023-03-26T20:39:06.201Z,8.07
2023-03-26T20:41:34.199Z,7.25
2023-03-26T20:44:01.070Z,6.32
2023-03-26T20:46:30.600Z,9.13
2023-03-26T20:48:59.832Z,9.30
2023-03-26T20:51:28.497Z,7.88
2023-03-26T20:53:56.093Z,6.30
2023-03-26T20:56:22.728Z,7.75
2023-03-26T20:58:54.772Z,9.15
2023-03-26T21:01:27.862Z,7.35
2023-03-26T21:03:54.548Z,7.85
2023-03-26T21:06:21.058Z,8.25
2023-03-26T21:08:47.805Z,8.88
2023-03-26T21:11:27.269Z,9.23
2023-03-26T21:14:01.987Z,8.27
2023-03-26T21:16:28.853Z,6.47
2023-03-26T21:18:56.604Z,7.63
2023-03-26T21:21:42.789Z,6.88
2023-03-26T21:24:40.987Z,8.18
2023-03-26T21:27:31.024Z,7.30
2023-03-26T21:29:59.724Z,7.80
2023-03-26T21:32:26.758Z,6.63
2023-03-26T21:34:59.144Z,13.88
2023-03-26T21:37:26.877Z,8.68
2023-03-26T21:39:55.724Z,7.90
2023-03-26T21:42:27.168Z,8.15
2023-03-26T21:44:53.927Z,8.02
2023-03-26T21:47:20.694Z,7.35
2023-03-26T21:49:47.542Z,9.60
2023-03-26T21:52:15.400Z,8.40
2023-03-26T21:54:45.237Z,8.02
2023-03-26T21:57:35.788Z,8.35
2023-03-26T22:03:27.730Z,8.95
2023-03-26T22:06:21.922Z,8.73
2023-03-26T22:08:49.795Z,8.57
2023-03-26T22:11:16.319Z,11.75
2023-03-26T22:13:43.715Z,13.93
2023-03-26T22:16:10.787Z,9.68
2023-03-26T22:18:37.647Z,9.00
2023-03-26T22:21:04.768Z,10.85
2023-03-26T22:23:35.452Z,10.07
2023-03-26T22:26:03.279Z,8.98
2023-03-26T22:28:30.472Z,12.95
2023-03-26T22:30:59.660Z,9.82
2023-03-26T22:33:26.703Z,9.68
2023-03-26T22:35:55.538Z,11.05
2023-03-26T22:38:24.960Z,12.27
2023-03-26T22:40:59.540Z,14.98
2023-03-26T22:43:28.583Z,10.70
2023-03-26T22:45:55.566Z,11.38
2023-03-26T22:48:23.704Z,11.07
2023-03-26T22:51:08.185Z,12.30
2023-03-26T22:53:37.988Z,15.75
2023-03-26T22:56:04.909Z,12.25
2023-03-26T22:58:33.589Z,10.93
2023-03-26T23:01:10.618Z,9.75
2023-03-26T23:03:37.493Z,13.18
2023-03-26T23:06:07.673Z,10.35
2023-03-26T23:08:37.461Z,13.68
2023-03-26T23:11:13.753Z,10.93
2023-03-26T23:13:41.643Z,14.52
2023-03-26T23:16:11.368Z,11.90
2023-03-26T23:18:38.723Z,12.70
2023-03-26T23:21:12.059Z,11.75
2023-03-26T23:23:41.482Z,12.35
2023-03-26T23:26:08.350Z,11.02
2023-03-26T23:28:35.653Z,9.73
2023-03-26T23:31:05.183Z,11.05
2023-03-26T23:33:35.484Z,10.48
2023-03-26T23:36:09.052Z,10.55
2023-03-26T23:38:43.399Z,14.73
2023-03-26T23:41:15.294Z,10.13
2023-03-26T23:43:53.343Z,10.50
2023-03-26T23:46:26.042Z,11.07
2023-03-26T23:48:53.103Z,11.88
2023-03-26T23:51:21.042Z,12.85
2023-03-26T23:53:49.237Z,12.00
2023-03-26T23:56:16.319Z,13.30
2023-03-26T23:58:43.032Z,15.38
